Campbeltown, United Kingdom
Current Conditions -  °F | °C
As of 10:50 AM on Friday 19 Dec 2014 (Local Time) from EGEC Reporting Station
Scattered Clouds Scattered Clouds  
Wind Chill: 33°   Ceiling: Unl
Heat Index: 45°   Visibility: 6mi
Dew Point: 36°   Wind: 41mph
Humidity: 71%   Direction: 270°W
Pressure: 29.68"   Gusts: 56mph
Location:  55.43°N, 5.61°W
Report Text: EGEC 191050Z 27036G49KT 9999 SCT022CB 07/02 Q1005
Loading
Personal Weather Stations






























Interactive Weather Map New forecast layout! Learn more

10-Day Weather Forecast

Advertisements
Track Severe Weather on mobile